Time;durP1;ratioP1;P1;durP2;ratioP2;P2;SDS_P1;SDS_P2;PMS_P1;PMS_P2;Temp;Humidity;BMP_temperature;BMP_pressure;BME280_temperature;BME280_humidity;BME280_pressure;Samples;Min_cycle;Max_cycle;Signal;HPM_P1;HPM_P2
2021/11/22 00:00:57;;;;;;;4.85;2.97;;;;;;;;;;5053193;28;20036;-64
2021/11/22 00:03:23;;;;;;;3.95;2.42;;;;;;;;;;5067874;28;20046;-63
2021/11/22 00:05:49;;;;;;;3.20;2.38;;;;;;;;;;5072623;28;20478;-64
2021/11/22 00:08:17;;;;;;;3.17;2.35;;;;;;;;;;5072083;28;20099;-64
2021/11/22 00:10:43;;;;;;;3.80;2.28;;;;;;;;;;5072808;28;20074;-64
2021/11/22 00:13:09;;;;;;;2.63;2.17;;;;;;;;;;5072507;28;20028;-64
2021/11/22 00:15:35;;;;;;;3.30;2.33;;;;;;;;;;5072096;28;20028;-64
2021/11/22 00:18:01;;;;;;;3.70;2.20;;;;;;;;;;5072782;28;20029;-64
2021/11/22 00:20:27;;;;;;;3.55;2.55;;;;;;;;;;5071469;28;20545;-64
2021/11/22 00:22:53;;;;;;;2.72;2.08;;;;;;;;;;5070179;28;20149;-63
2021/11/22 00:25:20;;;;;;;2.75;2.45;;;;;;;;;;5071588;28;20363;-64
2021/11/22 00:27:46;;;;;;;3.28;2.28;;;;;;;;;;5070903;28;20032;-63
2021/11/22 00:30:14;;;;;;;3.33;2.70;;;;;;;;;;5072365;28;20376;-64
2021/11/22 00:32:43;;;;;;;4.70;2.55;;;;;;;;;;5071853;28;20109;-64
2021/11/22 00:35:09;;;;;;;3.33;2.50;;;;;;;;;;5072132;28;20052;-64
2021/11/22 00:37:38;;;;;;;3.03;2.20;;;;;;;;;;5071409;28;20573;-64
2021/11/22 00:40:05;;;;;;;3.08;2.40;;;;;;;;;;5072330;28;20024;-64
2021/11/22 00:42:31;;;;;;;3.42;2.83;;;;;;;;;;5071149;28;20098;-64
2021/11/22 00:44:57;;;;;;;4.57;2.58;;;;;;;;;;5071859;28;20052;-64
2021/11/22 00:47:23;;;;;;;4.20;2.65;;;;;;;;;;5071254;28;20028;-64
2021/11/22 00:49:49;;;;;;;4.20;3.10;;;;;;;;;;5072199;28;20027;-64
2021/11/22 00:52:16;;;;;;;3.83;2.63;;;;;;;;;;5067777;28;20032;-64
2021/11/22 00:54:43;;;;;;;2.97;2.40;;;;;;;;;;5071914;28;20182;-64
2021/11/22 00:57:09;;;;;;;3.33;2.13;;;;;;;;;;5072118;28;20059;-64
2021/11/22 00:59:35;;;;;;;3.30;2.53;;;;;;;;;;5070486;28;20021;-64
2021/11/22 01:02:02;;;;;;;3.65;2.33;;;;;;;;;;5071846;28;20374;-64
2021/11/22 01:04:28;;;;;;;3.92;2.65;;;;;;;;;;5071094;28;20043;-64
2021/11/22 01:06:54;;;;;;;4.40;3.00;;;;;;;;;;5072010;28;20029;-64
2021/11/22 01:09:21;;;;;;;4.10;3.17;;;;;;;;;;5071206;28;20103;-64
2021/11/22 01:11:47;;;;;;;3.40;2.25;;;;;;;;;;5071407;28;20423;-64
2021/11/22 01:14:15;;;;;;;3.97;2.83;;;;;;;;;;5071511;28;20469;-64
2021/11/22 01:16:41;;;;;;;4.60;3.20;;;;;;;;;;5070987;28;20083;-64
2021/11/22 01:19:07;;;;;;;2.72;2.30;;;;;;;;;;5071608;28;20059;-64
2021/11/22 01:21:34;;;;;;;3.83;2.33;;;;;;;;;;5069386;28;20048;-64
2021/11/22 01:24:00;;;;;;;4.05;2.83;;;;;;;;;;5070097;28;20040;-64
2021/11/22 01:26:26;;;;;;;3.00;2.53;;;;;;;;;;5068995;28;20024;-64
2021/11/22 01:28:53;;;;;;;4.50;2.90;;;;;;;;;;5070961;28;20492;-64
2021/11/22 01:31:19;;;;;;;3.30;2.60;;;;;;;;;;5070776;28;20515;-64
2021/11/22 01:33:45;;;;;;;3.78;2.58;;;;;;;;;;5071640;28;20031;-64
2021/11/22 01:36:11;;;;;;;4.57;2.67;;;;;;;;;;5070423;28;20041;-64
2021/11/22 01:38:37;;;;;;;3.53;2.67;;;;;;;;;;5071063;28;20047;-64
2021/11/22 01:41:05;;;;;;;5.18;3.00;;;;;;;;;;5071758;28;20029;-64
2021/11/22 01:43:32;;;;;;;4.72;2.97;;;;;;;;;;5070872;28;20044;-64
2021/11/22 01:45:58;;;;;;;3.72;2.58;;;;;;;;;;5071716;28;20040;-64
2021/11/22 01:48:25;;;;;;;5.20;2.90;;;;;;;;;;5070788;28;20470;-64
2021/11/22 01:50:53;;;;;;;4.60;3.17;;;;;;;;;;5071253;28;20024;-64
2021/11/22 01:53:19;;;;;;;3.75;2.78;;;;;;;;;;5070073;28;20029;-64
2021/11/22 01:55:46;;;;;;;3.65;2.65;;;;;;;;;;5057366;28;20508;-64
2021/11/22 01:58:13;;;;;;;4.38;3.22;;;;;;;;;;5052341;28;20064;-64
2021/11/22 02:00:44;;;;;;;3.45;2.63;;;;;;;;;;5054608;28;20073;-64
2021/11/22 02:03:11;;;;;;;3.90;2.55;;;;;;;;;;5067936;28;20033;-64
2021/11/22 02:05:38;;;;;;;3.47;2.60;;;;;;;;;;5074757;28;20082;-64
2021/11/22 02:08:05;;;;;;;4.10;2.53;;;;;;;;;;5073666;28;20064;-64
2021/11/22 02:10:31;;;;;;;5.10;3.05;;;;;;;;;;5074494;28;20077;-64
2021/11/22 02:12:57;;;;;;;4.50;3.33;;;;;;;;;;5074769;28;20579;-65
2021/11/22 02:15:24;;;;;;;4.40;2.78;;;;;;;;;;5073952;28;20473;-65
2021/11/22 02:17:51;;;;;;;4.15;2.83;;;;;;;;;;5075237;28;20470;-64
2021/11/22 02:20:23;;;;;;;3.63;2.72;;;;;;;;;;5074948;28;20056;-64
2021/11/22 02:22:50;;;;;;;3.97;2.65;;;;;;;;;;5073910;28;20070;-64
2021/11/22 02:25:23;;;;;;;5.80;3.08;;;;;;;;;;5074570;28;20029;-64
2021/11/22 02:27:49;;;;;;;4.38;3.20;;;;;;;;;;5074730;28;20484;-64
2021/11/22 02:30:21;;;;;;;3.78;2.88;;;;;;;;;;5074625;28;20029;-64
2021/11/22 02:32:47;;;;;;;3.85;2.67;;;;;;;;;;5074629;28;20020;-64
2021/11/22 02:35:19;;;;;;;3.97;2.88;;;;;;;;;;5074588;28;20079;-64
2021/11/22 02:37:46;;;;;;;4.97;2.75;;;;;;;;;;5074358;28;20036;-65
2021/11/22 02:40:12;;;;;;;4.32;3.28;;;;;;;;;;5075014;28;20032;-65
2021/11/22 02:42:42;;;;;;;5.43;3.58;;;;;;;;;;5073721;28;20043;-65
2021/11/22 02:45:09;;;;;;;3.70;2.70;;;;;;;;;;5074222;28;20433;-65
2021/11/22 02:47:35;;;;;;;5.85;3.35;;;;;;;;;;5073298;28;20444;-65
2021/11/22 02:50:02;;;;;;;3.85;2.67;;;;;;;;;;5074750;28;20086;-65
2021/11/22 02:52:28;;;;;;;4.15;3.33;;;;;;;;;;5073651;28;20370;-65
2021/11/22 02:54:54;;;;;;;3.78;3.00;;;;;;;;;;5074605;28;20029;-65
2021/11/22 02:57:20;;;;;;;4.70;3.25;;;;;;;;;;5073382;28;20439;-65
2021/11/22 02:59:46;;;;;;;5.38;3.25;;;;;;;;;;5074184;28;20032;-65
2021/11/22 03:02:14;;;;;;;4.03;2.60;;;;;;;;;;5073938;28;20032;-65
2021/11/22 03:04:41;;;;;;;3.33;2.58;;;;;;;;;;5073389;28;20032;-65
2021/11/22 03:07:08;;;;;;;4.68;2.58;;;;;;;;;;5073835;28;20025;-65
2021/11/22 03:09:35;;;;;;;3.65;2.63;;;;;;;;;;5072877;28;20386;-66
2021/11/22 03:12:02;;;;;;;4.25;2.80;;;;;;;;;;5074623;28;20420;-66
2021/11/22 03:14:29;;;;;;;4.75;2.97;;;;;;;;;;5073089;28;20032;-66
2021/11/22 03:16:55;;;;;;;3.58;2.58;;;;;;;;;;5073611;28;20036;-66
2021/11/22 03:19:22;;;;;;;4.38;3.03;;;;;;;;;;5072974;28;20028;-66
2021/11/22 03:21:48;;;;;;;3.72;2.33;;;;;;;;;;5070836;28;20025;-66
2021/11/22 03:24:15;;;;;;;5.45;3.17;;;;;;;;;;5053779;28;20056;-66
2021/11/22 03:26:41;;;;;;;4.00;3.03;;;;;;;;;;5053110;28;20017;-65
2021/11/22 03:29:08;;;;;;;3.28;2.38;;;;;;;;;;5072018;28;20024;-65
2021/11/22 03:31:36;;;;;;;5.03;3.13;;;;;;;;;;5072884;28;20370;-65
2021/11/22 03:34:02;;;;;;;3.20;2.67;;;;;;;;;;5073550;28;20028;-65
2021/11/22 03:36:30;;;;;;;4.68;2.42;;;;;;;;;;5072691;28;20056;-65
2021/11/22 03:38:56;;;;;;;4.22;3.33;;;;;;;;;;5073671;28;20104;-65
2021/11/22 03:41:23;;;;;;;4.07;2.70;;;;;;;;;;5072543;28;20494;-66
2021/11/22 03:43:55;;;;;;;4.35;3.17;;;;;;;;;;5073095;28;20099;-64
2021/11/22 03:46:21;;;;;;;3.95;2.70;;;;;;;;;;5072834;28;20111;-66
2021/11/22 03:48:48;;;;;;;4.82;2.83;;;;;;;;;;5073308;28;20039;-65
2021/11/22 03:51:14;;;;;;;5.22;3.05;;;;;;;;;;5072152;28;20036;-64
2021/11/22 03:53:40;;;;;;;4.47;3.17;;;;;;;;;;5072239;28;20048;-71
2021/11/22 03:56:07;;;;;;;3.78;2.60;;;;;;;;;;5073590;28;20099;-64
2021/11/22 03:58:33;;;;;;;4.50;3.13;;;;;;;;;;5072351;28;20162;-63
2021/11/22 04:00:59;;;;;;;4.30;3.13;;;;;;;;;;5073206;28;20017;-67
2021/11/22 04:03:25;;;;;;;5.28;3.03;;;;;;;;;;5071889;28;20028;-65
2021/11/22 04:05:51;;;;;;;4.25;3.30;;;;;;;;;;5072968;28;20072;-63
2021/11/22 04:08:22;;;;;;;3.80;2.92;;;;;;;;;;5072986;28;20107;-66
2021/11/22 04:10:48;;;;;;;4.13;2.85;;;;;;;;;;5073505;28;20082;-65
2021/11/22 04:13:14;;;;;;;4.65;3.40;;;;;;;;;;5072737;28;20048;-65
2021/11/22 04:15:41;;;;;;;4.03;3.22;;;;;;;;;;5071538;28;20032;-66
2021/11/22 04:18:07;;;;;;;3.65;2.50;;;;;;;;;;5072738;28;20532;-65
2021/11/22 04:20:34;;;;;;;4.53;2.97;;;;;;;;;;5071566;28;20104;-65
2021/11/22 04:23:01;;;;;;;6.13;3.70;;;;;;;;;;5068362;28;20036;-65
2021/11/22 04:25:27;;;;;;;3.92;3.00;;;;;;;;;;5071827;28;20036;-65
2021/11/22 04:27:54;;;;;;;5.13;3.00;;;;;;;;;;5072691;28;20016;-65
2021/11/22 04:30:22;;;;;;;4.70;2.50;;;;;;;;;;5072422;28;20059;-65
2021/11/22 04:32:48;;;;;;;4.80;2.50;;;;;;;;;;5072574;28;20350;-66
2021/11/22 04:35:15;;;;;;;4.18;2.70;;;;;;;;;;5071826;28;20131;-65
2021/11/22 04:37:43;;;;;;;4.25;3.00;;;;;;;;;;5071695;28;20613;-65
2021/11/22 04:40:10;;;;;;;3.30;2.40;;;;;;;;;;5072312;28;20025;-65
2021/11/22 04:42:36;;;;;;;4.00;2.58;;;;;;;;;;5071181;28;20096;-63
2021/11/22 04:45:03;;;;;;;3.05;2.40;;;;;;;;;;5072050;28;20036;-62
2021/11/22 04:47:29;;;;;;;4.53;2.58;;;;;;;;;;5071535;28;20025;-63
2021/11/22 04:49:55;;;;;;;3.63;2.53;;;;;;;;;;5072286;28;20024;-63
2021/11/22 04:52:23;;;;;;;3.53;2.63;;;;;;;;;;5072347;28;20666;-63
2021/11/22 04:54:49;;;;;;;4.32;2.65;;;;;;;;;;5071708;28;20505;-63
2021/11/22 04:57:16;;;;;;;3.05;2.60;;;;;;;;;;5072054;28;20044;-63
2021/11/22 04:59:42;;;;;;;3.03;2.38;;;;;;;;;;5071109;28;20634;-63
2021/11/22 05:02:09;;;;;;;4.18;2.60;;;;;;;;;;5051297;28;20013;-63
2021/11/22 05:04:38;;;;;;;3.20;2.65;;;;;;;;;;5049607;28;20040;-63
2021/11/22 05:07:05;;;;;;;4.03;2.60;;;;;;;;;;5050841;28;20053;-63
2021/11/22 05:09:31;;;;;;;3.50;2.60;;;;;;;;;;5050032;28;20078;-63
2021/11/22 05:11:57;;;;;;;2.80;2.40;;;;;;;;;;5050771;28;20013;-63
2021/11/22 05:14:24;;;;;;;4.38;2.55;;;;;;;;;;5052575;28;20025;-63
2021/11/22 05:16:51;;;;;;;3.00;2.42;;;;;;;;;;5053191;28;20094;-62
2021/11/22 05:19:17;;;;;;;3.53;2.72;;;;;;;;;;5050476;28;20108;-62
2021/11/22 05:21:44;;;;;;;3.38;2.47;;;;;;;;;;5049709;28;20810;-62
2021/11/22 05:24:10;;;;;;;3.30;2.60;;;;;;;;;;5053005;28;20033;-62
2021/11/22 05:26:37;;;;;;;2.85;2.13;;;;;;;;;;5048257;28;20409;-62
2021/11/22 05:29:04;;;;;;;3.53;2.50;;;;;;;;;;5050204;28;20096;-62
2021/11/22 05:31:31;;;;;;;3.08;2.40;;;;;;;;;;5050814;28;20040;-62
2021/11/22 05:33:57;;;;;;;3.13;2.20;;;;;;;;;;5051189;28;20029;-63
2021/11/22 05:36:24;;;;;;;3.05;2.38;;;;;;;;;;5050137;28;20052;-63
2021/11/22 05:38:50;;;;;;;3.25;2.63;;;;;;;;;;5068537;28;20509;-64
2021/11/22 05:41:16;;;;;;;3.50;2.78;;;;;;;;;;5054892;28;20481;-62
2021/11/22 05:43:43;;;;;;;3.13;2.25;;;;;;;;;;5049774;28;20013;-62
2021/11/22 05:46:11;;;;;;;3.80;2.28;;;;;;;;;;5050394;28;20037;-62
2021/11/22 05:48:38;;;;;;;3.42;2.75;;;;;;;;;;5052129;28;20025;-63
2021/11/22 05:51:07;;;;;;;2.97;2.25;;;;;;;;;;5047383;28;20033;-62
2021/11/22 05:53:34;;;;;;;2.85;2.05;;;;;;;;;;5049648;28;20084;-62
2021/11/22 05:56:01;;;;;;;3.03;2.25;;;;;;;;;;5050250;28;20116;-63
2021/11/22 05:58:27;;;;;;;3.35;2.65;;;;;;;;;;5052093;28;20021;-63
2021/11/22 06:00:53;;;;;;;2.38;1.92;;;;;;;;;;5051285;28;20025;-62
2021/11/22 06:03:19;;;;;;;4.10;2.83;;;;;;;;;;5050233;28;20374;-63
2021/11/22 06:05:45;;;;;;;2.60;2.00;;;;;;;;;;5049541;28;20104;-62
2021/11/22 06:08:11;;;;;;;3.45;2.67;;;;;;;;;;5061131;28;20457;-62
2021/11/22 06:10:37;;;;;;;3.75;2.35;;;;;;;;;;5070523;28;20032;-63
2021/11/22 06:13:04;;;;;;;3.72;2.58;;;;;;;;;;5071276;28;20032;-63
2021/11/22 06:15:32;;;;;;;3.00;2.25;;;;;;;;;;5070696;28;20475;-63
2021/11/22 06:17:58;;;;;;;2.95;2.22;;;;;;;;;;5071342;28;20078;-63
2021/11/22 06:20:25;;;;;;;2.00;1.50;;;;;;;;;;5070492;28;20025;-64
2021/11/22 06:22:51;;;;;;;3.30;2.03;;;;;;;;;;5059412;28;20064;-63
2021/11/22 06:25:17;;;;;;;2.13;1.92;;;;;;;;;;5053333;28;20108;-64
2021/11/22 06:27:43;;;;;;;3.30;1.98;;;;;;;;;;5070264;28;20028;-64
2021/11/22 06:30:09;;;;;;;2.05;1.70;;;;;;;;;;5071472;28;20404;-64
2021/11/22 06:32:36;;;;;;;2.47;1.95;;;;;;;;;;5070652;28;20458;-62
2021/11/22 06:35:03;;;;;;;3.00;2.50;;;;;;;;;;5070572;28;20131;-63
2021/11/22 06:37:31;;;;;;;2.85;2.00;;;;;;;;;;5069059;28;20492;-62
2021/11/22 06:39:57;;;;;;;9.63;2.70;;;;;;;;;;5070072;28;20400;-64
2021/11/22 06:42:26;;;;;;;5.03;2.03;;;;;;;;;;5070694;28;20500;-63
2021/11/22 06:44:52;;;;;;;6.45;2.38;;;;;;;;;;5072448;28;20505;-63
2021/11/22 06:47:18;;;;;;;6.28;2.67;;;;;;;;;;5074152;28;20382;-66
2021/11/22 06:49:45;;;;;;;4.53;2.20;;;;;;;;;;5072325;28;20020;-65
2021/11/22 06:52:13;;;;;;;2.95;1.98;;;;;;;;;;5074491;28;20028;-65
2021/11/22 06:54:39;;;;;;;6.05;2.35;;;;;;;;;;5073526;28;20024;-73
2021/11/22 06:57:05;;;;;;;11.88;2.95;;;;;;;;;;5073572;28;20020;-68
2021/11/22 06:59:34;;;;;;;6.47;2.33;;;;;;;;;;5073967;28;20380;-64
2021/11/22 07:02:00;;;;;;;9.43;2.97;;;;;;;;;;5074436;28;20021;-60
2021/11/22 07:04:26;;;;;;;8.65;2.90;;;;;;;;;;5073809;28;20032;-63
2021/11/22 07:06:53;;;;;;;13.30;3.60;;;;;;;;;;5073684;28;20551;-65
2021/11/22 07:09:19;;;;;;;7.97;3.15;;;;;;;;;;5074342;28;20027;-64
2021/11/22 07:11:48;;;;;;;8.77;2.22;;;;;;;;;;5073257;28;20607;-64
2021/11/22 07:14:14;;;;;;;11.38;2.95;;;;;;;;;;5074219;28;20032;-65
2021/11/22 07:16:40;;;;;;;4.75;1.95;;;;;;;;;;5071650;28;20031;-64
2021/11/22 07:19:06;;;;;;;7.13;2.22;;;;;;;;;;5073817;28;20024;-65
2021/11/22 07:21:32;;;;;;;4.43;2.58;;;;;;;;;;5072726;28;20504;-64
2021/11/22 07:23:58;;;;;;;7.40;2.60;;;;;;;;;;5065360;28;20169;-65
2021/11/22 07:26:30;;;;;;;6.82;2.50;;;;;;;;;;5064651;28;20067;-63
2021/11/22 07:28:56;;;;;;;;;;;;;;;;;;5076030;28;20021;-65
2021/11/22 07:31:22;;;;;;;5.60;2.30;;;;;;;;;;5073638;28;20015;-64
2021/11/22 07:33:49;;;;;;;9.40;2.17;;;;;;;;;;5072995;28;20085;-65
2021/11/22 07:36:16;;;;;;;5.10;2.08;;;;;;;;;;5073284;28;20044;-64
2021/11/22 07:38:43;;;;;;;6.15;2.13;;;;;;;;;;5073073;28;20098;-64
2021/11/22 07:41:09;;;;;;;8.35;2.35;;;;;;;;;;5080770;28;20494;-64
2021/11/22 07:43:35;;;;;;;6.65;2.08;;;;;;;;;;5072834;28;20025;-66
2021/11/22 07:46:01;;;;;;;6.18;2.40;;;;;;;;;;5072956;28;20458;-67
2021/11/22 07:48:30;;;;;;;7.60;2.45;;;;;;;;;;5041267;28;20110;-64
2021/11/22 07:50:56;;;;;;;8.65;2.05;;;;;;;;;;5059123;28;20021;-66
2021/11/22 07:53:22;;;;;;;8.80;1.98;;;;;;;;;;5071171;28;20029;-66
2021/11/22 07:55:48;;;;;;;4.88;1.75;;;;;;;;;;5071297;28;20017;-67
2021/11/22 07:58:18;;;;;;;6.70;2.17;;;;;;;;;;5064705;28;20032;-63
2021/11/22 08:00:44;;;;;;;15.02;3.00;;;;;;;;;;5068310;28;20527;-66
2021/11/22 08:03:10;;;;;;;4.80;1.77;;;;;;;;;;5056480;28;20053;-66
2021/11/22 08:05:36;;;;;;;5.45;1.63;;;;;;;;;;5067915;28;20042;-67
2021/11/22 08:08:03;;;;;;;6.57;1.73;;;;;;;;;;5066502;28;20021;-67
2021/11/22 08:10:33;;;;;;;7.50;2.03;;;;;;;;;;5067683;28;20630;-64
2021/11/22 08:13:07;;;;;;;4.90;2.08;;;;;;;;;;5071010;28;20028;-65
2021/11/22 08:15:34;;;;;;;6.90;2.58;;;;;;;;;;5066221;28;20440;-65
2021/11/22 08:18:02;;;;;;;5.65;1.60;;;;;;;;;;5065216;28;20109;-65
2021/11/22 08:20:34;;;;;;;5.40;1.45;;;;;;;;;;5052129;28;20072;-64
2021/11/22 08:23:00;;;;;;;3.85;1.80;;;;;;;;;;5052019;28;20032;-65
2021/11/22 08:25:30;;;;;;;5.45;2.05;;;;;;;;;;5052021;28;20037;-65
2021/11/22 08:27:57;;;;;;;6.65;2.05;;;;;;;;;;5070467;28;20025;-65
2021/11/22 08:30:24;;;;;;;4.70;1.73;;;;;;;;;;5062125;28;20120;-65
2021/11/22 08:32:51;;;;;;;4.35;1.42;;;;;;;;;;5051275;28;20024;-64
2021/11/22 08:35:19;;;;;;;3.47;1.60;;;;;;;;;;5062169;28;20453;-65
2021/11/22 08:37:45;;;;;;;3.65;1.40;;;;;;;;;;5070801;28;20039;-66
2021/11/22 08:40:13;;;;;;;3.78;1.55;;;;;;;;;;5072238;28;20028;-65
2021/11/22 08:42:40;;;;;;;4.47;1.35;;;;;;;;;;5063571;28;20538;-65
2021/11/22 08:45:07;;;;;;;3.63;1.60;;;;;;;;;;5071277;28;20086;-65
2021/11/22 08:47:33;;;;;;;6.18;2.00;;;;;;;;;;5053217;28;20502;-65
2021/11/22 08:49:59;;;;;;;3.88;1.50;;;;;;;;;;5051773;28;20378;-66
2021/11/22 08:52:25;;;;;;;8.30;1.75;;;;;;;;;;5053324;28;20108;-65
2021/11/22 08:54:52;;;;;;;3.55;1.30;;;;;;;;;;5070012;28;20551;-64
2021/11/22 08:57:19;;;;;;;2.33;1.40;;;;;;;;;;5071760;28;20082;-65
2021/11/22 08:59:46;;;;;;;2.92;1.48;;;;;;;;;;5071317;28;20032;-65
2021/11/22 09:02:12;;;;;;;4.78;1.52;;;;;;;;;;5071456;28;20013;-66
2021/11/22 09:04:38;;;;;;;3.20;1.50;;;;;;;;;;5070787;28;20491;-65
2021/11/22 09:07:05;;;;;;;2.20;1.52;;;;;;;;;;5071345;28;20481;-65
2021/11/22 09:09:32;;;;;;;2.50;1.48;;;;;;;;;;5070958;28;20202;-64
2021/11/22 09:11:58;;;;;;;3.13;1.50;;;;;;;;;;5071827;28;20016;-65
2021/11/22 09:14:24;;;;;;;5.65;1.50;;;;;;;;;;5071494;28;20048;-66
2021/11/22 09:16:50;;;;;;;3.72;1.60;;;;;;;;;;5065814;28;20182;-65
2021/11/22 09:19:16;;;;;;;2.08;1.13;;;;;;;;;;5063183;28;20028;-66
2021/11/22 09:21:42;;;;;;;2.95;1.02;;;;;;;;;;5068656;28;20025;-65
2021/11/22 09:24:09;;;;;;;5.32;2.25;;;;;;;;;;5031822;28;20072;-66
2021/11/22 09:26:35;;;;;;;5.60;1.58;;;;;;;;;;5030720;28;20033;-65
2021/11/22 09:29:02;;;;;;;2.50;1.10;;;;;;;;;;5031359;28;20022;-66
2021/11/22 09:31:35;;;;;;;2.33;1.55;;;;;;;;;;5056262;28;20037;-64
2021/11/22 09:34:01;;;;;;;3.05;1.33;;;;;;;;;;5071321;28;20037;-66
2021/11/22 09:36:27;;;;;;;4.40;1.92;;;;;;;;;;5070484;28;20045;-65
2021/11/22 09:38:54;;;;;;;4.05;1.50;;;;;;;;;;5070381;28;20094;-65
2021/11/22 09:41:23;;;;;;;1.92;1.52;;;;;;;;;;5071542;28;20025;-65
2021/11/22 09:43:50;;;;;;;2.03;1.20;;;;;;;;;;5054214;28;20025;-66
2021/11/22 09:46:16;;;;;;;1.92;1.35;;;;;;;;;;5050813;28;20469;-65
2021/11/22 09:48:43;;;;;;;2.20;1.42;;;;;;;;;;5058067;28;20123;-66
2021/11/22 09:51:10;;;;;;;4.78;1.73;;;;;;;;;;5054858;28;20102;-64
2021/11/22 09:53:40;;;;;;;2.05;1.00;;;;;;;;;;5069650;28;20055;-66
2021/11/22 09:56:07;;;;;;;6.80;1.90;;;;;;;;;;5071405;28;20027;-64
2021/11/22 09:58:34;;;;;;;3.78;1.38;;;;;;;;;;5070219;28;20013;-64
2021/11/22 10:01:06;;;;;;;1.25;1.05;;;;;;;;;;5070986;28;20381;-66
2021/11/22 10:03:38;;;;;;;1.77;1.60;;;;;;;;;;5070405;28;20508;-64
2021/11/22 10:06:04;;;;;;;2.42;1.30;;;;;;;;;;5065213;28;20035;-65
2021/11/22 10:08:37;;;;;;;6.07;1.73;;;;;;;;;;5072089;28;20035;-65
2021/11/22 10:11:03;;;;;;;1.67;1.05;;;;;;;;;;5071006;28;20028;-65
2021/11/22 10:13:35;;;;;;;2.70;1.40;;;;;;;;;;5070448;28;20028;-66
2021/11/22 10:16:20;;;;;;;2.83;1.15;;;;;;;;;;5070757;28;20047;-65
2021/11/22 10:18:50;;;;;;;2.00;1.30;;;;;;;;;;5042844;28;20059;-65
2021/11/22 10:21:18;;;;;;;8.52;1.52;;;;;;;;;;5066219;28;20036;-65
2021/11/22 10:23:45;;;;;;;2.03;1.20;;;;;;;;;;5072295;28;20029;-65
2021/11/22 10:26:16;;;;;;;1.63;1.13;;;;;;;;;;5072519;28;20075;-65
2021/11/22 10:28:52;;;;;;;3.03;1.15;;;;;;;;;;5073936;28;20120;-64
2021/11/22 10:31:21;;;;;;;2.38;1.30;;;;;;;;;;5074928;28;20067;-65
2021/11/22 10:33:48;;;;;;;1.15;1.05;;;;;;;;;;5073671;28;20025;-65
2021/11/22 10:36:16;;;;;;;1.45;1.20;;;;;;;;;;5072236;28;20052;-65
2021/11/22 10:38:45;;;;;;;1.42;0.88;;;;;;;;;;5073368;28;20477;-64
2021/11/22 10:41:37;;;;;;;2.08;1.20;;;;;;;;;;5074477;28;20110;-65
2021/11/22 10:44:03;;;;;;;1.80;0.98;;;;;;;;;;5071540;28;20111;-65
2021/11/22 10:46:33;;;;;;;1.02;0.93;;;;;;;;;;5074295;28;20476;-65
2021/11/22 10:49:16;;;;;;;2.45;1.30;;;;;;;;;;5067703;28;20023;-65
2021/11/22 10:51:45;;;;;;;1.75;1.10;;;;;;;;;;5065518;28;20050;-63
2021/11/22 10:54:13;;;;;;;4.20;1.10;;;;;;;;;;5090715;28;20493;-65
2021/11/22 10:56:43;;;;;;;2.95;1.40;;;;;;;;;;5087897;28;20061;-70
2021/11/22 10:59:12;;;;;;;6.05;1.58;;;;;;;;;;5071905;28;20029;-68
2021/11/22 11:01:47;;;;;;;4.50;1.73;;;;;;;;;;5073345;28;20021;-71
2021/11/22 11:04:18;;;;;;;3.42;1.88;;;;;;;;;;5074185;28;20025;-71
2021/11/22 11:06:44;;;;;;;6.63;1.85;;;;;;;;;;5073320;28;20021;-72
2021/11/22 11:09:17;;;;;;;5.00;1.90;;;;;;;;;;5084727;28;20428;-72
2021/11/22 11:11:43;;;;;;;3.45;1.83;;;;;;;;;;5076039;28;20029;-72
2021/11/22 11:14:11;;;;;;;3.47;1.70;;;;;;;;;;5072336;28;20036;-71
2021/11/22 11:16:38;;;;;;;5.03;1.67;;;;;;;;;;5066476;28;20538;-68
2021/11/22 11:19:06;;;;;;;2.42;1.60;;;;;;;;;;5051069;28;20100;-70
2021/11/22 11:21:41;;;;;;;2.40;1.35;;;;;;;;;;5072538;28;20138;-60
2021/11/22 11:24:07;;;;;;;3.17;1.58;;;;;;;;;;5060138;28;20382;-67
2021/11/22 11:26:40;;;;;;;4.22;1.55;;;;;;;;;;5073482;28;20533;-59
2021/11/22 11:29:07;;;;;;;3.78;1.73;;;;;;;;;;5072153;28;20029;-74
2021/11/22 11:31:40;;;;;;;4.28;1.38;;;;;;;;;;5073021;28;20051;-63
2021/11/22 11:34:07;;;;;;;5.50;1.40;;;;;;;;;;5073818;28;20031;-68
2021/11/22 11:36:52;;;;;;;3.08;1.50;;;;;;;;;;5073407;28;20051;-63
2021/11/22 11:39:45;;;;;;;5.78;1.90;;;;;;;;;;5073233;28;20051;-69
2021/11/22 11:42:22;;;;;;;3.85;1.60;;;;;;;;;;5033690;28;20077;-67
2021/11/22 11:44:54;;;;;;;2.20;1.42;;;;;;;;;;5032471;28;20383;-68
2021/11/22 11:47:20;;;;;;;;;;;;;;;;;;5067906;28;20036;-59
2021/11/22 11:49:46;;;;;;;4.47;1.55;;;;;;;;;;5055875;28;19924;-65
2021/11/22 11:52:28;;;;;;;3.25;1.50;;;;;;;;;;5057858;28;20020;-64
2021/11/22 11:54:56;;;;;;;3.55;1.90;;;;;;;;;;5074290;28;20024;-65
2021/11/22 11:57:24;;;;;;;4.80;1.40;;;;;;;;;;5072326;28;20040;-62
2021/11/22 11:59:50;;;;;;;5.15;1.35;;;;;;;;;;5071591;28;20024;-64
2021/11/22 12:02:30;;;;;;;5.75;1.85;;;;;;;;;;5074039;28;20036;-61
2021/11/22 12:04:59;;;;;;;2.90;1.48;;;;;;;;;;5073299;28;20055;-62
2021/11/22 12:07:25;;;;;;;5.32;1.13;;;;;;;;;;5072835;28;20133;-63
2021/11/22 12:10:10;;;;;;;3.35;1.33;;;;;;;;;;5072018;28;20100;-62
2021/11/22 12:12:38;;;;;;;2.55;1.05;;;;;;;;;;5071513;28;20025;-58
2021/11/22 12:15:14;;;;;;;2.17;1.00;;;;;;;;;;5050915;28;20037;-62
2021/11/22 12:17:40;;;;;;;3.13;1.40;;;;;;;;;;5067724;28;20500;-62
2021/11/22 12:20:11;;;;;;;2.97;1.33;;;;;;;;;;5072792;28;20025;-62
2021/11/22 12:22:42;;;;;;;1.65;1.23;;;;;;;;;;5052951;28;20500;-60
2021/11/22 12:25:10;;;;;;;3.35;1.40;;;;;;;;;;5052189;28;20036;-60
2021/11/22 12:27:37;;;;;;;1.90;1.30;;;;;;;;;;5043704;28;20033;-61
2021/11/22 12:30:23;;;;;;;2.45;1.23;;;;;;;;;;5052758;28;20523;-62
2021/11/22 12:32:49;;;;;;;4.88;1.60;;;;;;;;;;5056549;28;20112;-63
2021/11/22 12:35:15;;;;;;;2.63;1.40;;;;;;;;;;5061960;28;20115;-62
2021/11/22 12:37:42;;;;;;;1.73;1.00;;;;;;;;;;5070821;28;20036;-62
2021/11/22 12:40:10;;;;;;;1.90;1.00;;;;;;;;;;5071744;28;20033;-62
2021/11/22 12:42:47;;;;;;;2.28;1.40;;;;;;;;;;5084274;28;20024;-59
2021/11/22 12:45:14;;;;;;;2.22;1.35;;;;;;;;;;5051483;28;20061;-62
2021/11/22 12:47:40;;;;;;;3.15;1.20;;;;;;;;;;5068668;28;20116;-62
2021/11/22 12:50:08;;;;;;;2.83;0.90;;;;;;;;;;5071449;28;20032;-63
2021/11/22 12:52:36;;;;;;;3.00;1.08;;;;;;;;;;5071630;28;20021;-62
2021/11/22 12:55:11;;;;;;;2.00;0.90;;;;;;;;;;5030020;28;20030;-62
2021/11/22 12:57:43;;;;;;;3.33;1.30;;;;;;;;;;5054099;28;20048;-59
2021/11/22 13:00:28;;;;;;;3.03;1.02;;;;;;;;;;5051683;28;20091;-62
2021/11/22 13:03:03;;;;;;;2.35;0.98;;;;;;;;;;5050947;28;20029;-62
2021/11/22 13:05:42;;;;;;;6.65;1.50;;;;;;;;;;5071218;28;20039;-63
2021/11/22 13:08:17;;;;;;;7.60;1.42;;;;;;;;;;5071549;28;20029;-62
2021/11/22 13:10:45;;;;;;;3.95;1.52;;;;;;;;;;5071066;28;20445;-62
2021/11/22 13:13:28;;;;;;;2.75;1.50;;;;;;;;;;5067421;28;20029;-62
2021/11/22 13:15:55;;;;;;;4.03;1.35;;;;;;;;;;5050258;28;20033;-62
2021/11/22 13:18:29;;;;;;;2.92;1.30;;;;;;;;;;5070803;28;20068;-62
2021/11/22 13:20:56;;;;;;;19.65;1.30;;;;;;;;;;5069043;28;20027;-62
2021/11/22 13:23:24;;;;;;;2.97;0.90;;;;;;;;;;5051614;28;20075;-62
2021/11/22 13:25:51;;;;;;;2.15;1.10;;;;;;;;;;5061956;28;20033;-62
2021/11/22 13:28:22;;;;;;;3.70;1.10;;;;;;;;;;5059279;28;20032;-62
2021/11/22 13:30:49;;;;;;;2.40;1.10;;;;;;;;;;5070045;28;20368;-62
2021/11/22 13:33:15;;;;;;;2.28;1.00;;;;;;;;;;5071540;28;20029;-62
2021/11/22 13:35:42;;;;;;;2.85;0.90;;;;;;;;;;5069473;28;20060;-61
2021/11/22 13:38:22;;;;;;;3.08;1.25;;;;;;;;;;5070955;28;20025;-62
2021/11/22 13:40:58;;;;;;;1.45;1.00;;;;;;;;;;5070467;28;20103;-62
2021/11/22 13:43:28;;;;;;;1.45;0.70;;;;;;;;;;5071164;28;20028;-62
2021/11/22 13:45:54;;;;;;;2.35;1.10;;;;;;;;;;5070150;28;20028;-62
2021/11/22 13:48:20;;;;;;;3.30;1.00;;;;;;;;;;5071020;28;20039;-62
2021/11/22 13:50:48;;;;;;;1.38;0.80;;;;;;;;;;5070378;28;20028;-62
2021/11/22 13:53:14;;;;;;;2.67;1.20;;;;;;;;;;5071503;28;20031;-62
2021/11/22 13:55:46;;;;;;;4.65;1.20;;;;;;;;;;5074990;28;20078;-59
2021/11/22 13:58:14;;;;;;;1.95;0.90;;;;;;;;;;5065161;28;20096;-62
2021/11/22 14:00:56;;;;;;;1.25;0.85;;;;;;;;;;5075417;28;20028;-59
2021/11/22 14:03:22;;;;;;;;;;;;;;;;;;5075219;28;20107;-62
2021/11/22 14:05:52;;;;;;;3.13;1.10;;;;;;;;;;5072488;28;20404;-62
2021/11/22 14:08:18;;;;;;;1.42;0.90;;;;;;;;;;5074501;28;20021;-62
2021/11/22 14:10:44;;;;;;;3.50;1.35;;;;;;;;;;5074699;28;20095;-59
2021/11/22 14:13:12;;;;;;;4.60;1.23;;;;;;;;;;5074632;28;20032;-62
2021/11/22 14:15:38;;;;;;;2.65;1.63;;;;;;;;;;5063331;28;20102;-62
2021/11/22 14:18:10;;;;;;;3.67;1.40;;;;;;;;;;5070313;28;20025;-62
2021/11/22 14:20:36;;;;;;;;;;;;;;;;;;5075597;28;20473;-62
2021/11/22 14:23:05;;;;;;;2.30;0.90;;;;;;;;;;5055072;28;19915;-62
2021/11/22 14:25:32;;;;;;;6.32;1.30;;;;;;;;;;5055178;28;20108;-62
2021/11/22 14:28:01;;;;;;;2.85;1.05;;;;;;;;;;5071225;28;20377;-62
2021/11/22 14:30:31;;;;;;;1.00;0.90;;;;;;;;;;5070383;28;20382;-61
2021/11/22 14:33:13;;;;;;;1.58;1.10;;;;;;;;;;5073668;28;20466;-62
2021/11/22 14:35:42;;;;;;;3.38;1.10;;;;;;;;;;5074642;28;20052;-62
2021/11/22 14:38:14;;;;;;;1.20;0.80;;;;;;;;;;5073996;28;20046;-62
2021/11/22 14:41:06;;;;;;;14.25;0.90;;;;;;;;;;5074635;28;20025;-62
2021/11/22 14:43:35;;;;;;;2.08;0.90;;;;;;;;;;5063783;28;20039;-62
2021/11/22 14:46:03;;;;;;;3.70;1.20;;;;;;;;;;5071970;28;20062;-62
2021/11/22 14:48:31;;;;;;;1.92;0.80;;;;;;;;;;5074122;28;20524;-63